Time,TemperatureF,DewpointF,PressureIn,WindDirection,WindDirectionDegrees,WindSpeedMPH,WindSpeedGustMPH,Humidity,HourlyPrecipIn,Conditions,Clouds,dailyrainin,SoftwareType,DateUTC
2013-03-12 00:04:00,62.0,59.0,29.91,South,173,5.0,8.0,91,0.00,,,0.00,weatherlink.com 1.10,2013-03-12 04:04:00,
2013-03-12 00:19:00,62.1,60.0,29.90,SSE,165,4.0,9.0,91,0.00,,,0.00,weatherlink.com 1.10,2013-03-12 04:19:00,
2013-03-12 00:34:00,61.9,59.0,29.89,SSW,206,4.0,6.0,91,0.00,,,0.00,weatherlink.com 1.10,2013-03-12 04:34:00,
2013-03-12 00:49:00,62.5,60.0,29.88,South,190,6.0,7.0,90,0.00,,,0.00,weatherlink.com 1.10,2013-03-12 04:49:00,
2013-03-12 01:04:00,62.6,60.0,29.88,SSE,165,3.0,8.0,90,0.00,,,0.00,weatherlink.com 1.10,2013-03-12 05:04:00,
2013-03-12 07:21:00,62.2,61.0,29.85,SW,224,3.0,9.0,94,0.04,,,0.07,weatherlink.com 1.10,2013-03-12 11:21:00,
2013-03-12 07:36:00,62.2,61.0,29.85,SW,218,2.0,4.0,94,0.02,,,0.07,weatherlink.com 1.10,2013-03-12 11:36:00,
2013-03-12 07:51:00,62.1,60.0,29.85,SSW,193,4.0,4.0,93,0.02,,,0.07,weatherlink.com 1.10,2013-03-12 11:51:00,
2013-03-12 08:06:00,62.0,60.0,29.85,SSW,210,1.0,4.0,93,0.01,,,0.07,weatherlink.com 1.10,2013-03-12 12:06:00,
2013-03-12 08:21:00,61.8,60.0,29.85,East,91,2.0,4.0,92,0.00,,,0.07,weatherlink.com 1.10,2013-03-12 12:21:00,
2013-03-12 08:36:00,61.9,59.0,29.86,SW,228,1.0,6.0,91,0.00,,,0.07,weatherlink.com 1.10,2013-03-12 12:36:00,
2013-03-12 08:51:00,61.7,59.0,29.87,WSW,237,1.0,3.0,92,0.00,,,0.07,weatherlink.com 1.10,2013-03-12 12:51:00,
2013-03-12 09:06:00,62.0,60.0,29.87,WSW,237,4.0,5.0,93,0.00,,,0.07,weatherlink.com 1.10,2013-03-12 13:06:00,
2013-03-12 09:21:00,62.3,60.0,29.88,WSW,239,3.0,12.0,92,0.00,,,0.07,weatherlink.com 1.10,2013-03-12 13:21:00,
2013-03-12 09:36:00,61.7,60.0,29.87,WSW,250,1.0,9.0,93,0.01,,,0.08,weatherlink.com 1.10,2013-03-12 13:36:00,
2013-03-12 09:51:00,62.4,60.0,29.87,ESE,104,3.0,8.0,93,0.01,,,0.08,weatherlink.com 1.10,2013-03-12 13:51:00,
2013-03-12 10:06:00,62.5,61.0,29.87,WSW,245,2.0,7.0,93,0.02,,,0.09,weatherlink.com 1.10,2013-03-12 14:06:00,
2013-03-12 10:21:00,62.5,61.0,29.88,SW,226,3.0,8.0,94,0.03,,,0.10,weatherlink.com 1.10,2013-03-12 14:21:00,
2013-03-12 10:36:00,62.5,61.0,29.88,SSW,203,3.0,10.0,94,0.03,,,0.11,weatherlink.com 1.10,2013-03-12 14:36:00,
2013-03-12 10:51:00,62.5,61.0,29.88,SW,235,4.0,6.0,94,0.04,,,0.12,weatherlink.com 1.10,2013-03-12 14:51:00,
2013-03-12 11:06:00,62.2,61.0,29.88,SW,231,4.0,5.0,94,0.02,,,0.12,weatherlink.com 1.10,2013-03-12 15:06:00,
2013-03-12 11:21:00,62.2,61.0,29.89,SSW,203,3.0,9.0,94,0.02,,,0.12,weatherlink.com 1.10,2013-03-12 15:21:00,
2013-03-12 11:36:00,61.9,60.0,29.89,WSW,250,1.0,6.0,94,0.00,,,0.12,weatherlink.com 1.10,2013-03-12 15:36:00,
2013-03-12 11:51:00,61.7,60.0,29.89,West,273,3.0,6.0,94,0.00,,,0.12,weatherlink.com 1.10,2013-03-12 15:51:00,
2013-03-12 12:06:00,61.7,60.0,29.89,WSW,255,3.0,9.0,95,0.00,,,0.12,weatherlink.com 1.10,2013-03-12 16:06:00,
2013-03-12 12:51:00,63.0,61.0,29.87,WSW,239,3.0,6.0,94,0.00,,,0.12,weatherlink.com 1.10,2013-03-12 16:51:00,
2013-03-12 13:06:00,62.7,61.0,29.87,SSW,193,0.0,5.0,94,0.00,,,0.12,weatherlink.com 1.10,2013-03-12 17:06:00,
2013-03-12 13:21:00,63.0,61.0,29.86,WSW,253,1.0,2.0,94,0.00,,,0.12,weatherlink.com 1.10,2013-03-12 17:21:00,
2013-03-12 13:36:00,64.2,62.0,29.86,WSW,252,0.0,3.0,93,0.00,,,0.12,weatherlink.com 1.10,2013-03-12 17:36:00,
2013-03-12 13:51:00,64.5,62.0,29.86,SSW,193,0.0,2.0,92,0.00,,,0.12,weatherlink.com 1.10,2013-03-12 17:51:00,
2013-03-12 14:36:00,64.8,62.0,29.84,WNW,298,4.0,10.0,89,0.00,,,0.12,weatherlink.com 1.10,2013-03-12 18:36:00,
2013-03-12 15:06:00,65.2,61.0,29.84,West,280,1.0,8.0,86,0.00,,,0.12,weatherlink.com 1.10,2013-03-12 19:06:00,
2013-03-12 17:07:00,69.0,53.0,29.83,WNW,283,4.0,7.0,57,0.00,,,0.12,weatherlink.com 1.10,2013-03-12 21:07:00,
2013-03-12 17:22:00,69.1,51.0,29.84,WNW,289,5.0,9.0,52,0.00,,,0.12,weatherlink.com 1.10,2013-03-12 21:22:00,
2013-03-12 17:37:00,69.0,47.0,29.84,NW,311,3.0,11.0,45,0.00,,,0.12,weatherlink.com 1.10,2013-03-12 21:37:00,
2013-03-12 17:52:00,68.7,48.0,29.84,West,278,5.0,9.0,47,0.00,,,0.12,weatherlink.com 1.10,2013-03-12 21:52:00,
2013-03-12 18:22:00,67.5,49.0,29.84,WNW,294,3.0,7.0,51,0.00,,,0.12,weatherlink.com 1.10,2013-03-12 22:22:00,
2013-03-12 18:37:00,66.6,49.0,29.85,WNW,302,5.0,8.0,53,0.00,,,0.12,weatherlink.com 1.10,2013-03-12 22:37:00,
2013-03-12 18:52:00,66.2,49.0,29.86,NW,311,1.0,7.0,54,0.00,,,0.12,weatherlink.com 1.10,2013-03-12 22:52:00,
2013-03-12 19:07:00,65.7,49.0,29.87,NW,307,3.0,6.0,56,0.00,,,0.12,weatherlink.com 1.10,2013-03-12 23:07:00,
2013-03-12 19:22:00,65.2,49.0,29.87,NW,305,2.0,7.0,56,0.00,,,0.12,weatherlink.com 1.10,2013-03-12 23:22:00,
2013-03-12 19:37:00,64.3,48.0,29.88,WNW,295,3.0,6.0,56,0.00,,,0.12,weatherlink.com 1.10,2013-03-12 23:37:00,
2013-03-12 19:52:00,63.9,47.0,29.88,NW,316,1.0,6.0,55,0.00,,,0.12,weatherlink.com 1.10,2013-03-12 23:52:00,
2013-03-12 20:07:00,63.7,46.0,29.89,WNW,288,4.0,7.0,53,0.00,,,0.12,weatherlink.com 1.10,2013-03-13 00:07:00,
2013-03-12 20:22:00,63.3,46.0,29.90,NW,314,3.0,7.0,53,0.00,,,0.12,weatherlink.com 1.10,2013-03-13 00:22:00,
2013-03-12 20:37:00,62.8,45.0,29.90,NW,316,4.0,8.0,53,0.00,,,0.12,weatherlink.com 1.10,2013-03-13 00:37:00,
2013-03-12 20:52:00,62.3,45.0,29.91,NW,316,2.0,6.0,54,0.00,,,0.12,weatherlink.com 1.10,2013-03-13 00:52:00,
2013-03-12 21:07:00,61.6,46.0,29.91,WNW,288,1.0,5.0,56,0.00,,,0.12,weatherlink.com 1.10,2013-03-13 01:07:00,
2013-03-12 21:22:00,60.5,45.0,29.92,NW,322,3.0,5.0,58,0.00,,,0.12,weatherlink.com 1.10,2013-03-13 01:22:00,
2013-03-12 21:37:00,61.3,45.0,29.93,West,277,4.0,10.0,55,0.00,,,0.12,weatherlink.com 1.10,2013-03-13 01:37:00,
2013-03-12 21:52:00,60.6,46.0,29.93,NW,316,3.0,10.0,58,0.00,,,0.12,weatherlink.com 1.10,2013-03-13 01:52:00,
2013-03-12 22:07:00,61.0,45.0,29.94,NW,314,1.0,7.0,55,0.00,,,0.12,weatherlink.com 1.10,2013-03-13 02:07:00,
2013-03-12 22:22:00,60.7,44.0,29.94,NW,304,1.0,7.0,55,0.00,,,0.12,weatherlink.com 1.10,2013-03-13 02:22:00,
2013-03-12 22:37:00,59.7,45.0,29.95,WNW,288,1.0,5.0,58,0.00,,,0.12,weatherlink.com 1.10,2013-03-13 02:37:00,
2013-03-12 22:52:00,59.3,45.0,29.95,WNW,301,5.0,7.0,59,0.00,,,0.12,weatherlink.com 1.10,2013-03-13 02:52:00,
2013-03-12 23:07:00,59.1,44.0,29.96,NNW,338,5.0,7.0,58,0.00,,,0.12,weatherlink.com 1.10,2013-03-13 03:07:00,
2013-03-12 23:22:00,58.6,45.0,29.97,WNW,300,2.0,6.0,60,0.00,,,0.12,weatherlink.com 1.10,2013-03-13 03:22:00,
2013-03-12 23:37:00,58.4,44.0,29.97,NW,305,2.0,7.0,60,0.00,,,0.12,weatherlink.com 1.10,2013-03-13 03:37:00,
2013-03-12 23:52:00,57.8,44.0,29.97,North,349,4.0,7.0,60,0.00,,,0.12,weatherlink.com 1.10,2013-03-13 03:52:00,